createdAt,value
2023-01-29T00:01:23.688Z,1.60
2023-01-29T00:03:51.036Z,1.50
2023-01-29T00:06:18.319Z,1.60
2023-01-29T00:08:45.119Z,1.50
2023-01-29T00:11:12.467Z,1.50
2023-01-29T00:13:39.276Z,1.50
2023-01-29T00:16:06.344Z,1.60
2023-01-29T00:18:33.177Z,1.50
2023-01-29T00:21:00.294Z,1.50
2023-01-29T00:23:27.140Z,1.60
2023-01-29T00:25:53.999Z,1.70
2023-01-29T00:28:20.812Z,1.70
2023-01-29T00:30:47.696Z,1.70
2023-01-29T00:33:14.551Z,1.60
2023-01-29T00:35:42.106Z,1.50
2023-01-29T00:38:09.181Z,1.50
2023-01-29T00:40:58.064Z,1.50
2023-01-29T00:43:43.530Z,1.60
2023-01-29T00:46:10.713Z,1.60
2023-01-29T00:48:37.644Z,1.60
2023-01-29T00:51:04.524Z,1.60
2023-01-29T00:53:31.402Z,1.60
2023-01-29T00:55:58.185Z,1.60
2023-01-29T00:58:28.384Z,1.60
2023-01-29T01:00:56.157Z,1.70
2023-01-29T01:03:23.009Z,1.80
2023-01-29T01:05:49.893Z,1.80
2023-01-29T01:08:35.457Z,1.80
2023-01-29T01:11:03.311Z,1.90
2023-01-29T01:13:31.584Z,2.00
2023-01-29T01:15:58.553Z,2.10
2023-01-29T01:18:25.448Z,2.20
2023-01-29T01:20:57.922Z,2.20
2023-01-29T01:23:24.767Z,2.20
2023-01-29T01:25:51.544Z,2.10
2023-01-29T01:28:18.388Z,2.20
2023-01-29T01:30:45.239Z,2.00
2023-01-29T01:33:12.088Z,1.90
2023-01-29T01:35:39.236Z,1.90
2023-01-29T01:38:06.019Z,1.80
2023-01-29T01:40:32.916Z,1.80
2023-01-29T01:43:00.727Z,1.70
2023-01-29T01:45:32.213Z,1.70
2023-01-29T01:48:04.580Z,1.70
2023-01-29T01:50:39.929Z,1.70
2023-01-29T01:53:08.399Z,1.70
2023-01-29T01:55:37.987Z,1.70
2023-01-29T01:58:09.088Z,1.70
2023-01-29T02:00:37.070Z,1.70
2023-01-29T02:03:22.792Z,1.80
2023-01-29T02:06:08.570Z,1.90
2023-01-29T02:09:01.458Z,1.90
2023-01-29T02:11:28.220Z,2.00
2023-01-29T02:13:55.056Z,2.00
2023-01-29T02:16:22.294Z,2.00
2023-01-29T02:18:50.141Z,2.00
2023-01-29T02:21:37.197Z,2.00
2023-01-29T02:24:19.035Z,2.00
2023-01-29T02:26:48.885Z,2.10
2023-01-29T02:29:23.228Z,2.10
2023-01-29T02:32:08.976Z,2.10
2023-01-29T02:35:17.625Z,2.10
2023-01-29T02:37:53.683Z,2.10
2023-01-29T02:40:27.222Z,2.10
2023-01-29T02:43:01.726Z,2.20
2023-01-29T02:45:40.577Z,2.20
2023-01-29T02:48:09.685Z,2.20
2023-01-29T02:50:49.468Z,2.30
2023-01-29T02:53:21.757Z,2.40
2023-01-29T02:56:03.535Z,2.50
2023-01-29T02:58:36.839Z,2.50
2023-01-29T03:01:22.311Z,2.60
2023-01-29T03:03:51.513Z,2.70
2023-01-29T03:06:22.376Z,3.00
2023-01-29T03:08:57.968Z,3.20
2023-01-29T03:11:27.729Z,3.40
2023-01-29T03:14:00.187Z,3.50
2023-01-29T03:16:32.035Z,3.70
2023-01-29T03:19:05.938Z,3.80
2023-01-29T03:21:53.071Z,3.80
2023-01-29T03:25:01.666Z,3.80
2023-01-29T03:27:50.589Z,3.90
2023-01-29T03:30:37.195Z,3.90
2023-01-29T03:33:05.918Z,4.00
2023-01-29T03:35:39.674Z,4.10
2023-01-29T03:38:10.055Z,4.10
2023-01-29T03:40:39.717Z,4.20
2023-01-29T03:43:13.066Z,4.10
2023-01-29T03:45:47.202Z,4.00
2023-01-29T03:48:26.412Z,4.10
2023-01-29T03:50:53.333Z,4.00
2023-01-29T03:53:20.101Z,4.00
2023-01-29T03:55:59.725Z,4.00
2023-01-29T03:58:34.826Z,4.00
2023-01-29T04:01:21.953Z,3.90
2023-01-29T04:03:52.384Z,3.80
2023-01-29T04:06:22.048Z,3.80
2023-01-29T04:08:55.150Z,3.80
2023-01-29T04:11:23.062Z,3.80
2023-01-29T04:13:50.061Z,3.90
2023-01-29T04:16:19.280Z,3.80
2023-01-29T04:18:49.448Z,3.80
2023-01-29T04:21:16.749Z,3.70
2023-01-29T04:23:43.680Z,3.70
2023-01-29T04:26:29.434Z,3.70
2023-01-29T04:29:03.004Z,3.70
2023-01-29T04:31:34.802Z,3.70
2023-01-29T04:34:04.573Z,3.70
2023-01-29T04:36:41.645Z,3.70
2023-01-29T04:39:11.010Z,3.70
2023-01-29T04:41:41.439Z,3.80
2023-01-29T04:44:16.911Z,3.80
2023-01-29T04:46:49.642Z,4.00
2023-01-29T04:49:23.375Z,4.00
2023-01-29T04:52:08.567Z,4.10
2023-01-29T04:54:38.571Z,4.10
2023-01-29T04:57:08.408Z,4.10
2023-01-29T04:59:55.492Z,4.20
2023-01-29T05:02:23.876Z,4.20
2023-01-29T05:04:50.877Z,4.30
2023-01-29T05:07:18.409Z,4.40
2023-01-29T05:09:45.729Z,4.50
2023-01-29T05:12:14.650Z,4.70
2023-01-29T05:14:43.469Z,4.70
2023-01-29T05:17:15.985Z,4.90
2023-01-29T05:19:42.801Z,5.00
2023-01-29T05:22:11.235Z,5.00
2023-01-29T05:24:38.362Z,5.00
2023-01-29T05:27:24.029Z,5.00
2023-01-29T05:29:50.852Z,5.00
2023-01-29T05:32:17.659Z,5.00
2023-01-29T05:34:44.532Z,4.90
2023-01-29T05:37:11.335Z,4.90
2023-01-29T05:39:38.105Z,4.90
2023-01-29T05:42:05.064Z,4.90
2023-01-29T05:44:31.852Z,5.00
2023-01-29T05:46:58.641Z,5.00
2023-01-29T05:49:25.529Z,5.00
2023-01-29T05:51:52.433Z,5.10
2023-01-29T05:54:19.296Z,5.10
2023-01-29T05:56:46.063Z,5.00
2023-01-29T05:59:13.476Z,5.00
2023-01-29T06:01:40.339Z,5.00
2023-01-29T06:04:07.186Z,4.90
2023-01-29T06:06:33.924Z,5.00
2023-01-29T06:09:00.704Z,5.10
2023-01-29T06:11:27.681Z,5.20
2023-01-29T06:13:54.530Z,5.30
2023-01-29T06:16:21.626Z,5.30
2023-01-29T06:18:48.473Z,5.30
2023-01-29T06:21:15.448Z,5.30
2023-01-29T06:23:42.475Z,5.30
2023-01-29T06:26:12.475Z,5.20
2023-01-29T06:28:39.705Z,5.10
2023-01-29T06:31:37.273Z,5.00
2023-01-29T06:33:53.812Z,4.90
2023-01-29T06:36:20.581Z,5.00
2023-01-29T06:38:47.498Z,5.00
2023-01-29T06:41:17.063Z,5.00
2023-01-29T06:43:44.409Z,4.90
2023-01-29T06:46:11.480Z,4.80
2023-01-29T06:48:38.273Z,4.80
2023-01-29T06:51:05.725Z,4.70
2023-01-29T06:53:33.504Z,4.80
2023-01-29T06:56:00.350Z,4.90
2023-01-29T06:58:27.203Z,4.90
2023-01-29T07:00:54.093Z,4.90
2023-01-29T07:03:21.215Z,4.90
2023-01-29T07:05:52.192Z,4.90
2023-01-29T07:08:19.593Z,5.10
2023-01-29T07:10:46.387Z,5.20
2023-01-29T07:13:13.262Z,5.30
2023-01-29T07:15:40.068Z,5.30
2023-01-29T07:18:12.343Z,5.30
2023-01-29T07:20:39.978Z,5.20
2023-01-29T07:23:07.277Z,5.10
2023-01-29T07:25:34.248Z,5.10
2023-01-29T07:28:01.755Z,5.10
2023-01-29T07:30:28.811Z,5.10
2023-01-29T07:32:56.078Z,5.30
2023-01-29T07:35:22.927Z,5.30
2023-01-29T07:37:50.000Z,5.30
2023-01-29T07:40:17.083Z,5.40
2023-01-29T07:42:44.295Z,5.50
2023-01-29T07:45:11.899Z,5.50
2023-01-29T07:47:38.767Z,5.50
2023-01-29T07:50:06.148Z,5.50
2023-01-29T07:52:34.004Z,5.50
2023-01-29T07:55:00.805Z,5.40
2023-01-29T07:57:27.692Z,5.40
2023-01-29T07:59:54.616Z,5.50
2023-01-29T08:02:21.412Z,5.60
2023-01-29T08:04:48.356Z,5.70
2023-01-29T08:07:15.382Z,5.70
2023-01-29T08:09:42.258Z,5.70
2023-01-29T08:12:09.013Z,5.70
2023-01-29T08:14:35.914Z,5.70
2023-01-29T08:17:02.837Z,5.60
2023-01-29T08:19:29.716Z,5.60
2023-01-29T08:21:56.536Z,5.70
2023-01-29T08:24:28.228Z,5.70
2023-01-29T08:27:03.736Z,5.60
2023-01-29T08:29:30.542Z,5.60
2023-01-29T08:31:57.576Z,5.60
2023-01-29T08:34:24.462Z,5.60
2023-01-29T08:36:51.370Z,5.60
2023-01-29T08:39:18.304Z,5.70
2023-01-29T08:41:45.270Z,5.80
2023-01-29T08:44:12.065Z,5.70
2023-01-29T08:46:40.845Z,5.70
2023-01-29T08:49:08.528Z,5.70
2023-01-29T08:51:35.446Z,5.70
2023-01-29T08:54:02.239Z,5.70
2023-01-29T08:56:29.209Z,5.70
2023-01-29T08:58:57.299Z,5.80
2023-01-29T09:01:25.164Z,5.90
2023-01-29T09:03:53.039Z,5.90
2023-01-29T09:06:19.916Z,5.90
2023-01-29T09:08:46.706Z,5.90
2023-01-29T09:11:13.550Z,5.90
2023-01-29T09:13:40.476Z,5.90
2023-01-29T09:16:07.470Z,6.00
2023-01-29T09:18:34.235Z,6.00
2023-01-29T09:21:02.697Z,5.90
2023-01-29T09:23:30.512Z,5.90
2023-01-29T09:25:57.377Z,5.90
2023-01-29T09:28:24.403Z,5.90
2023-01-29T09:30:51.539Z,5.90
2023-01-29T09:33:18.858Z,5.90
2023-01-29T09:35:48.481Z,5.80
2023-01-29T09:38:15.446Z,5.80
2023-01-29T09:40:42.288Z,5.80
2023-01-29T09:43:12.222Z,5.80
2023-01-29T09:45:40.890Z,5.90
2023-01-29T09:48:11.217Z,5.90
2023-01-29T09:50:43.691Z,5.90
2023-01-29T09:53:32.715Z,5.90
2023-01-29T09:56:02.527Z,6.00
2023-01-29T09:58:32.391Z,6.10
2023-01-29T10:01:02.174Z,6.20
2023-01-29T10:03:43.941Z,6.20
2023-01-29T10:06:49.105Z,6.20
2023-01-29T10:09:33.837Z,6.20
2023-01-29T10:12:06.314Z,6.20
2023-01-29T10:14:45.389Z,6.30
2023-01-29T10:17:30.963Z,6.30
2023-01-29T10:20:16.148Z,6.30
2023-01-29T10:22:46.147Z,6.30
2023-01-29T10:25:18.410Z,6.70
2023-01-29T10:27:48.792Z,7.20
2023-01-29T10:30:37.406Z,7.50
2023-01-29T10:33:05.505Z,7.80
2023-01-29T10:35:38.289Z,8.00
2023-01-29T10:38:23.684Z,8.10
2023-01-29T10:40:56.061Z,8.30
2023-01-29T10:43:29.121Z,8.30
2023-01-29T10:46:04.785Z,8.40
2023-01-29T10:48:44.592Z,8.40
2023-01-29T10:51:26.481Z,8.20
2023-01-29T10:53:56.192Z,8.10
2023-01-29T10:56:37.962Z,8.00
2023-01-29T10:59:09.423Z,8.00
2023-01-29T11:01:36.273Z,8.10
2023-01-29T11:04:03.903Z,8.30
2023-01-29T11:06:31.865Z,8.20
2023-01-29T11:09:17.277Z,8.30
2023-01-29T11:11:50.435Z,8.20
2023-01-29T11:14:21.852Z,8.20
2023-01-29T11:16:49.138Z,8.30
2023-01-29T11:19:16.509Z,8.30
2023-01-29T11:21:51.329Z,8.30
2023-01-29T11:24:18.791Z,8.30
2023-01-29T11:26:48.105Z,8.40
2023-01-29T11:29:29.534Z,8.40
2023-01-29T11:31:57.775Z,8.50
2023-01-29T11:34:27.691Z,8.50
2023-01-29T11:36:58.698Z,8.70
2023-01-29T11:39:26.181Z,9.00
2023-01-29T11:41:59.092Z,9.40
2023-01-29T11:44:29.974Z,9.70
2023-01-29T11:46:59.344Z,10.10
2023-01-29T11:49:31.649Z,10.30
2023-01-29T11:52:01.918Z,10.60
2023-01-29T11:54:31.212Z,10.70
2023-01-29T11:56:58.637Z,10.80
2023-01-29T11:59:48.879Z,10.90
2023-01-29T12:02:31.660Z,11.10
2023-01-29T12:05:01.653Z,11.10
2023-01-29T12:07:29.209Z,11.20
2023-01-29T12:09:57.029Z,11.40
2023-01-29T12:12:23.807Z,11.50
2023-01-29T12:15:02.435Z,11.50
2023-01-29T12:17:30.892Z,11.60
2023-01-29T12:20:04.495Z,11.70
2023-01-29T12:22:43.488Z,11.70
2023-01-29T12:25:39.832Z,11.80
2023-01-29T12:28:13.040Z,11.90
2023-01-29T12:30:39.930Z,12.00
2023-01-29T12:33:14.282Z,12.10
2023-01-29T12:36:04.523Z,12.20
2023-01-29T12:38:31.438Z,12.20
2023-01-29T12:41:06.069Z,12.20
2023-01-29T12:43:35.657Z,12.30
2023-01-29T12:46:02.873Z,12.30
2023-01-29T12:48:41.711Z,12.30
2023-01-29T12:51:10.673Z,12.30
2023-01-29T12:53:39.604Z,12.30
2023-01-29T12:56:10.669Z,12.30
2023-01-29T12:58:48.251Z,12.30
2023-01-29T13:01:16.634Z,12.30
2023-01-29T13:03:55.678Z,12.40
2023-01-29T13:06:36.656Z,12.40
2023-01-29T13:09:06.585Z,12.30
2023-01-29T13:11:53.722Z,12.40
2023-01-29T13:14:22.964Z,12.30
2023-01-29T13:16:52.780Z,12.30
2023-01-29T13:19:31.870Z,12.20
2023-01-29T13:22:00.833Z,12.20
2023-01-29T13:24:33.103Z,12.10
2023-01-29T13:27:01.123Z,12.10
2023-01-29T13:29:31.953Z,12.00
2023-01-29T13:32:00.089Z,12.00
2023-01-29T13:34:37.864Z,12.00
2023-01-29T13:37:10.556Z,11.90
2023-01-29T13:39:44.419Z,11.80
2023-01-29T13:42:22.016Z,11.70
2023-01-29T13:44:53.545Z,11.70
2023-01-29T13:47:27.598Z,11.70
2023-01-29T13:50:00.096Z,11.70
2023-01-29T13:52:40.935Z,11.70
2023-01-29T13:55:09.631Z,11.80
2023-01-29T13:57:46.150Z,11.70
2023-01-29T14:00:22.397Z,11.60
2023-01-29T14:02:55.249Z,11.60
2023-01-29T14:05:31.076Z,11.60
2023-01-29T14:07:59.496Z,11.60
2023-01-29T14:10:27.448Z,11.50
2023-01-29T14:13:03.535Z,11.40
2023-01-29T14:15:32.471Z,11.40
2023-01-29T14:18:13.829Z,11.30
2023-01-29T14:20:48.600Z,11.20
2023-01-29T14:23:36.336Z,11.20
2023-01-29T14:26:07.742Z,11.20
2023-01-29T14:28:35.394Z,11.20
2023-01-29T14:31:02.961Z,11.20
2023-01-29T14:33:35.172Z,11.20
2023-01-29T14:36:11.418Z,11.20
2023-01-29T14:38:38.906Z,11.20
2023-01-29T14:41:09.515Z,11.20
2023-01-29T14:43:36.426Z,11.10
2023-01-29T14:46:22.099Z,11.10
2023-01-29T14:48:48.961Z,11.00
2023-01-29T14:51:16.919Z,11.00
2023-01-29T14:54:04.098Z,10.90
2023-01-29T14:56:35.149Z,10.70
2023-01-29T14:59:12.650Z,10.70
2023-01-29T15:01:39.986Z,10.70
2023-01-29T15:04:13.639Z,10.70
2023-01-29T15:06:47.424Z,10.70
2023-01-29T15:09:22.055Z,10.80
2023-01-29T15:12:08.660Z,10.70
2023-01-29T15:14:36.849Z,10.90
2023-01-29T15:17:09.734Z,11.50
2023-01-29T15:19:45.835Z,11.80
2023-01-29T15:22:13.935Z,11.90
2023-01-29T15:24:41.474Z,12.00
2023-01-29T15:27:12.659Z,12.00
2023-01-29T15:29:40.178Z,11.90
2023-01-29T15:32:07.839Z,11.80
2023-01-29T15:34:34.604Z,11.80
2023-01-29T15:37:01.737Z,11.70
2023-01-29T15:39:29.657Z,11.50
2023-01-29T15:42:12.083Z,11.20
2023-01-29T15:44:44.523Z,11.00
2023-01-29T15:47:11.421Z,10.70
2023-01-29T15:49:39.573Z,10.50
2023-01-29T15:52:08.431Z,10.30
2023-01-29T15:54:35.636Z,10.20
2023-01-29T15:57:03.379Z,10.10
2023-01-29T15:59:34.657Z,9.90
2023-01-29T16:02:18.425Z,9.80
2023-01-29T16:04:45.665Z,9.60
2023-01-29T16:07:12.790Z,9.50
2023-01-29T16:09:39.725Z,9.40
2023-01-29T16:12:06.790Z,9.30
2023-01-29T16:14:33.917Z,9.30
2023-01-29T16:17:10.712Z,9.20
2023-01-29T16:19:37.615Z,9.10
2023-01-29T16:22:06.072Z,9.10
2023-01-29T16:24:35.726Z,9.00
2023-01-29T16:27:08.413Z,9.00
2023-01-29T16:29:35.661Z,9.00
2023-01-29T16:32:03.307Z,8.90
2023-01-29T16:34:30.169Z,9.00
2023-01-29T16:36:57.719Z,8.90
2023-01-29T16:39:27.932Z,8.90
2023-01-29T16:42:22.353Z,8.90
2023-01-29T16:45:03.079Z,8.90
2023-01-29T16:47:36.362Z,8.90
2023-01-29T16:50:06.514Z,8.90
2023-01-29T16:52:34.585Z,8.80
2023-01-29T16:55:02.813Z,8.80
2023-01-29T16:57:31.545Z,8.60
2023-01-29T17:00:00.532Z,8.50
2023-01-29T17:02:36.813Z,8.40
2023-01-29T17:05:05.581Z,8.30
2023-01-29T17:07:33.263Z,8.20
2023-01-29T17:10:01.982Z,8.10
2023-01-29T17:12:29.418Z,8.00
2023-01-29T17:15:00.209Z,8.00
2023-01-29T17:17:34.555Z,7.90
2023-01-29T17:20:14.338Z,7.90
2023-01-29T17:22:41.301Z,7.80
2023-01-29T17:25:09.682Z,7.80
2023-01-29T17:27:40.237Z,7.80
2023-01-29T17:30:07.879Z,7.80
2023-01-29T17:32:44.063Z,7.80
2023-01-29T17:35:13.241Z,7.80
2023-01-29T17:37:40.316Z,7.70
2023-01-29T17:40:16.660Z,7.70
2023-01-29T17:42:43.478Z,7.70
2023-01-29T17:45:10.918Z,7.70
2023-01-29T17:47:37.946Z,7.60
2023-01-29T17:50:14.597Z,7.60
2023-01-29T17:52:41.433Z,7.60
2023-01-29T17:55:08.623Z,7.60
2023-01-29T17:57:35.540Z,7.50
2023-01-29T18:00:02.491Z,7.50
2023-01-29T18:02:30.147Z,7.50
2023-01-29T18:04:57.256Z,7.40
2023-01-29T18:07:24.065Z,7.40
2023-01-29T18:09:50.912Z,7.40
2023-01-29T18:12:17.797Z,7.40
2023-01-29T18:14:44.869Z,7.40
2023-01-29T18:17:11.620Z,7.40
2023-01-29T18:19:38.547Z,7.30
2023-01-29T18:22:05.475Z,7.40
2023-01-29T18:24:32.324Z,7.40
2023-01-29T18:26:59.131Z,7.40
2023-01-29T18:29:30.092Z,7.40
2023-01-29T18:31:57.110Z,7.40
2023-01-29T18:34:24.340Z,7.40
2023-01-29T18:36:51.328Z,7.40
2023-01-29T18:39:18.384Z,7.30
2023-01-29T18:41:45.170Z,7.20
2023-01-29T18:44:12.034Z,7.20
2023-01-29T18:46:38.815Z,7.20
2023-01-29T18:49:05.645Z,7.20
2023-01-29T18:51:32.514Z,7.20
2023-01-29T18:53:59.351Z,7.20
2023-01-29T18:56:26.185Z,7.20
2023-01-29T18:58:56.076Z,7.20
2023-01-29T19:01:23.264Z,7.20
2023-01-29T19:03:50.347Z,7.20
2023-01-29T19:06:17.238Z,7.10
2023-01-29T19:08:44.136Z,7.00
2023-01-29T19:11:12.748Z,7.10
2023-01-29T19:13:40.994Z,7.10
2023-01-29T19:16:12.061Z,7.10
2023-01-29T19:18:39.016Z,7.10
2023-01-29T19:21:06.919Z,7.10
2023-01-29T19:23:33.734Z,7.00
2023-01-29T19:26:00.503Z,7.00
2023-01-29T19:28:27.335Z,7.00
2023-01-29T19:30:56.817Z,7.00
2023-01-29T19:33:24.000Z,6.90
2023-01-29T19:35:50.823Z,6.90
2023-01-29T19:38:21.209Z,6.90
2023-01-29T19:40:48.402Z,6.80
2023-01-29T19:43:18.185Z,6.90
2023-01-29T19:45:50.297Z,6.80
2023-01-29T19:48:21.426Z,6.80
2023-01-29T19:50:55.593Z,6.80
2023-01-29T19:53:23.224Z,6.80
2023-01-29T19:56:02.970Z,6.80
2023-01-29T19:58:29.840Z,6.80
2023-01-29T20:01:01.191Z,6.80
2023-01-29T20:03:28.993Z,6.70
2023-01-29T20:05:56.717Z,6.70
2023-01-29T20:08:24.070Z,6.70
2023-01-29T20:10:50.932Z,6.70
2023-01-29T20:13:17.829Z,6.60
2023-01-29T20:15:45.709Z,6.60
2023-01-29T20:18:13.150Z,6.60
2023-01-29T20:20:43.335Z,6.50
2023-01-29T20:23:10.640Z,6.50
2023-01-29T20:25:37.797Z,6.50
2023-01-29T20:28:11.621Z,6.40
2023-01-29T20:30:38.890Z,6.30
2023-01-29T20:33:06.064Z,6.30
2023-01-29T20:35:33.478Z,6.20
2023-01-29T20:38:00.654Z,6.20
2023-01-29T20:40:28.000Z,6.10
2023-01-29T20:42:54.796Z,6.10
2023-01-29T20:45:22.076Z,6.00
2023-01-29T20:47:49.717Z,6.00
2023-01-29T20:50:33.661Z,5.90
2023-01-29T20:53:00.957Z,5.90
2023-01-29T20:55:27.839Z,5.90
2023-01-29T20:58:06.105Z,5.90
2023-01-29T21:00:33.789Z,5.90
2023-01-29T21:03:00.621Z,5.90
2023-01-29T21:05:27.516Z,5.80
2023-01-29T21:07:54.375Z,5.80
2023-01-29T21:10:21.249Z,5.80
2023-01-29T21:12:48.052Z,5.80
2023-01-29T21:15:14.911Z,5.80
2023-01-29T21:17:41.939Z,5.80
2023-01-29T21:20:10.040Z,5.90
2023-01-29T21:22:37.133Z,5.80
2023-01-29T21:25:04.202Z,5.80
2023-01-29T21:27:31.066Z,5.80
2023-01-29T21:29:58.212Z,5.80
2023-01-29T21:32:25.237Z,5.70
2023-01-29T21:34:52.712Z,5.70
2023-01-29T21:37:19.999Z,5.70
2023-01-29T21:39:47.035Z,5.60
2023-01-29T21:42:32.556Z,5.60
2023-01-29T21:45:01.321Z,5.60
2023-01-29T21:47:28.227Z,5.50
2023-01-29T21:49:55.085Z,5.50
2023-01-29T21:52:21.945Z,5.40
2023-01-29T21:54:49.101Z,5.40
2023-01-29T21:57:16.540Z,5.50
2023-01-29T21:59:43.684Z,5.50
2023-01-29T22:02:17.324Z,5.50
2023-01-29T22:04:44.350Z,5.50
2023-01-29T22:07:12.339Z,5.50
2023-01-29T22:09:39.542Z,5.50
2023-01-29T22:12:07.017Z,5.50
2023-01-29T22:14:34.487Z,5.50
2023-01-29T22:17:01.573Z,5.50
2023-01-29T22:19:29.679Z,5.50
2023-01-29T22:21:56.664Z,5.50
2023-01-29T22:24:23.548Z,5.50
2023-01-29T22:26:50.718Z,5.50
2023-01-29T22:29:17.803Z,5.50
2023-01-29T22:31:44.824Z,5.50
2023-01-29T22:34:11.936Z,5.50
2023-01-29T22:36:39.136Z,5.60
2023-01-29T22:39:07.600Z,5.60
2023-01-29T22:41:34.867Z,5.60
2023-01-29T22:44:01.772Z,5.60
2023-01-29T22:46:28.738Z,5.60
2023-01-29T22:48:55.645Z,5.60
2023-01-29T22:51:22.704Z,5.60
2023-01-29T22:53:49.579Z,5.50
2023-01-29T22:56:16.785Z,5.50
2023-01-29T22:58:44.007Z,5.50
2023-01-29T23:01:10.933Z,5.40
2023-01-29T23:03:37.782Z,5.50
2023-01-29T23:06:04.629Z,5.50
2023-01-29T23:08:32.520Z,5.40
2023-01-29T23:11:14.053Z,5.40
2023-01-29T23:13:45.035Z,5.40
2023-01-29T23:16:12.239Z,5.50
2023-01-29T23:18:39.336Z,5.50
2023-01-29T23:21:06.249Z,5.50
2023-01-29T23:23:34.379Z,5.50
2023-01-29T23:26:20.465Z,5.50
2023-01-29T23:28:47.536Z,5.50
2023-01-29T23:31:14.565Z,5.50
2023-01-29T23:33:41.450Z,5.50
2023-01-29T23:36:08.496Z,5.60
2023-01-29T23:38:35.403Z,5.60
2023-01-29T23:41:02.258Z,5.60
2023-01-29T23:43:29.828Z,5.60
2023-01-29T23:45:56.956Z,5.60
2023-01-29T23:48:23.885Z,5.60
2023-01-29T23:50:50.901Z,5.70
2023-01-29T23:53:18.047Z,5.70
2023-01-29T23:55:55.245Z,5.70
2023-01-29T23:58:22.200Z,5.70
